createdAt,value
2022-10-19T00:03:18.295Z,25.00
2022-10-19T00:08:22.988Z,25.03
2022-10-19T00:13:25.222Z,25.02
2022-10-19T00:18:27.312Z,25.01
2022-10-19T00:23:29.271Z,25.03
2022-10-19T00:28:31.818Z,25.02
2022-10-19T00:33:34.223Z,25.01
2022-10-19T00:38:36.241Z,25.02
2022-10-19T00:44:06.735Z,25.00
2022-10-19T00:49:32.163Z,25.00
2022-10-19T00:54:37.441Z,25.00
2022-10-19T00:59:41.316Z,25.01
2022-10-19T01:04:48.370Z,25.01
2022-10-19T01:09:50.401Z,25.01
2022-10-19T01:14:55.329Z,25.01
2022-10-19T01:20:19.175Z,25.00
2022-10-19T01:25:58.311Z,24.99
2022-10-19T01:31:00.319Z,25.00
2022-10-19T01:36:07.231Z,24.99
2022-10-19T01:41:21.896Z,24.99
2022-10-19T01:46:38.638Z,25.00
2022-10-19T01:51:46.156Z,25.00
2022-10-19T01:56:51.756Z,24.99
2022-10-19T02:01:55.057Z,24.98
2022-10-19T02:06:57.181Z,24.97
2022-10-19T02:12:03.840Z,24.98
2022-10-19T02:17:15.022Z,24.98
2022-10-19T02:22:17.164Z,25.00
2022-10-19T02:27:19.379Z,24.98
2022-10-19T02:32:21.700Z,24.99
2022-10-19T02:37:25.579Z,24.98
2022-10-19T02:42:40.387Z,24.97
2022-10-19T02:47:56.485Z,24.97
2022-10-19T02:53:01.788Z,24.97
2022-10-19T02:58:03.721Z,24.99
2022-10-19T03:03:05.730Z,24.97
2022-10-19T03:08:07.720Z,24.96
2022-10-19T03:13:09.784Z,24.96
2022-10-19T03:18:11.812Z,24.97
2022-10-19T03:23:13.824Z,24.98
2022-10-19T03:28:15.800Z,24.96
2022-10-19T03:33:17.802Z,24.96
2022-10-19T03:38:19.749Z,24.97
2022-10-19T03:43:21.659Z,24.96
2022-10-19T03:48:23.790Z,24.97
2022-10-19T03:53:25.779Z,24.98
2022-10-19T03:58:27.827Z,24.95
2022-10-19T04:03:29.882Z,24.96
2022-10-19T04:08:31.870Z,24.97
2022-10-19T04:13:35.050Z,24.97
2022-10-19T04:18:37.113Z,24.96
2022-10-19T04:23:39.163Z,24.95
2022-10-19T04:28:41.261Z,24.95
2022-10-19T04:33:43.343Z,24.95
2022-10-19T04:38:45.427Z,24.95
2022-10-19T04:43:48.127Z,24.95
2022-10-19T04:48:50.152Z,24.96
2022-10-19T04:53:56.904Z,24.94
2022-10-19T04:59:01.621Z,24.95
2022-10-19T05:04:03.764Z,24.95
2022-10-19T05:09:05.739Z,24.95
2022-10-19T05:14:07.717Z,24.94
2022-10-19T05:19:14.283Z,24.95
2022-10-19T05:24:16.392Z,24.93
2022-10-19T05:29:18.476Z,24.94
2022-10-19T05:34:20.614Z,24.95
2022-10-19T05:39:23.264Z,24.94
2022-10-19T05:44:25.388Z,24.94
2022-10-19T05:49:27.513Z,24.95
2022-10-19T05:54:29.921Z,24.93
2022-10-19T05:59:32.067Z,24.95
2022-10-19T06:04:34.208Z,24.93
2022-10-19T06:09:37.369Z,24.94
2022-10-19T06:14:39.572Z,24.93
2022-10-19T06:19:41.710Z,24.93
2022-10-19T06:24:43.761Z,24.93
2022-10-19T06:29:45.836Z,24.92
2022-10-19T06:34:47.923Z,24.93
2022-10-19T06:39:50.079Z,24.93
2022-10-19T06:44:52.176Z,24.92
2022-10-19T06:49:54.148Z,24.92
2022-10-19T06:54:56.176Z,24.91
2022-10-19T06:59:58.152Z,24.92
2022-10-19T07:05:04.461Z,24.93
2022-10-19T07:10:09.573Z,24.92
2022-10-19T07:15:11.556Z,24.93
2022-10-19T07:20:13.663Z,24.92
2022-10-19T07:25:15.840Z,24.92
2022-10-19T07:30:18.041Z,24.92
2022-10-19T07:35:20.191Z,24.92
2022-10-19T07:40:22.234Z,24.92
2022-10-19T07:45:24.313Z,24.92
2022-10-19T07:50:28.119Z,24.90
2022-10-19T07:55:30.138Z,24.92
2022-10-19T08:00:32.390Z,24.92
2022-10-19T08:05:34.853Z,24.91
2022-10-19T08:10:37.129Z,24.90
2022-10-19T08:15:39.161Z,24.92
2022-10-19T08:20:42.240Z,24.91
2022-10-19T08:25:44.389Z,24.91
2022-10-19T08:30:46.714Z,24.90
2022-10-19T08:35:48.872Z,24.92
2022-10-19T08:40:50.996Z,24.92
2022-10-19T08:46:01.720Z,24.90
2022-10-19T08:51:06.098Z,24.92
2022-10-19T08:56:51.950Z,24.90
2022-10-19T09:02:03.815Z,24.90
2022-10-19T09:07:21.968Z,24.93
2022-10-19T09:12:53.905Z,24.92
2022-10-19T09:17:58.437Z,24.93
2022-10-19T09:23:34.283Z,24.91
2022-10-19T09:28:39.675Z,24.92
2022-10-19T09:33:45.624Z,24.92
2022-10-19T09:38:49.251Z,24.90
2022-10-19T09:43:54.726Z,24.92
2022-10-19T09:49:01.587Z,24.92
2022-10-19T09:54:04.353Z,24.93
2022-10-19T09:59:22.221Z,24.92
2022-10-19T10:04:24.414Z,24.92
2022-10-19T10:09:29.082Z,24.92
2022-10-19T10:14:35.273Z,24.93
2022-10-19T10:19:49.128Z,24.93
2022-10-19T10:24:54.044Z,24.93
2022-10-19T10:35:07.516Z,24.94
2022-10-19T10:40:28.593Z,24.93
2022-10-19T10:45:39.996Z,24.94
2022-10-19T10:50:42.104Z,24.94
2022-10-19T10:55:56.300Z,24.95
2022-10-19T11:01:06.595Z,24.94
2022-10-19T11:06:10.477Z,24.95
2022-10-19T11:11:23.395Z,24.95
2022-10-19T11:16:32.869Z,24.94
2022-10-19T11:21:58.028Z,24.95
2022-10-19T11:27:06.292Z,24.97
2022-10-19T11:32:24.004Z,24.97
2022-10-19T11:38:06.729Z,24.95
2022-10-19T11:43:51.732Z,24.96
2022-10-19T11:48:56.954Z,24.97
2022-10-19T11:54:34.086Z,24.96
2022-10-19T11:59:47.971Z,24.97
2022-10-19T12:05:13.465Z,24.96
2022-10-19T12:10:42.006Z,24.97
2022-10-19T12:15:48.546Z,24.97
2022-10-19T12:20:54.482Z,24.99
2022-10-19T12:25:59.285Z,24.97
2022-10-19T12:31:02.503Z,24.98
2022-10-19T12:36:19.818Z,24.97
2022-10-19T12:41:45.161Z,24.99
2022-10-19T12:46:53.736Z,24.98
2022-10-19T12:52:01.644Z,25.00
2022-10-19T12:57:22.832Z,24.98
2022-10-19T13:02:30.300Z,25.00
2022-10-19T13:07:35.961Z,25.02
2022-10-19T13:12:44.483Z,25.00
2022-10-19T13:17:48.678Z,25.01
2022-10-19T13:23:13.261Z,25.00
2022-10-19T13:28:15.297Z,25.02
2022-10-19T13:33:29.396Z,25.02
2022-10-19T13:38:40.738Z,25.03
2022-10-19T13:44:20.493Z,25.03
2022-10-19T13:49:44.368Z,25.04
2022-10-19T13:54:46.340Z,25.04
2022-10-19T14:00:16.214Z,25.02
2022-10-19T14:05:18.268Z,25.04
2022-10-19T14:10:28.317Z,25.06
2022-10-19T14:15:35.709Z,25.05
2022-10-19T14:20:39.437Z,25.06
2022-10-19T14:25:41.442Z,25.06
2022-10-19T14:30:43.965Z,25.05
2022-10-19T14:35:50.323Z,25.06
2022-10-19T14:40:52.392Z,25.07
2022-10-19T14:46:16.415Z,25.05
2022-10-19T14:51:35.683Z,25.05
2022-10-19T14:56:56.432Z,25.06
2022-10-19T15:02:05.857Z,25.07
2022-10-19T15:07:18.406Z,25.07
2022-10-19T15:12:26.163Z,25.09
2022-10-19T15:17:30.277Z,25.07
2022-10-19T15:22:32.665Z,25.07
2022-10-19T15:27:39.195Z,25.07
2022-10-19T15:32:41.346Z,25.08
2022-10-19T15:37:45.024Z,25.07
2022-10-19T15:42:49.062Z,25.08
2022-10-19T15:48:10.992Z,25.07
2022-10-19T15:53:12.995Z,25.08
2022-10-19T15:58:15.915Z,25.08
2022-10-19T16:03:17.938Z,25.08
2022-10-19T16:08:19.962Z,25.09
2022-10-19T16:13:21.994Z,25.08
2022-10-19T16:18:24.097Z,25.09
2022-10-19T16:23:26.854Z,25.09
2022-10-19T16:28:28.916Z,25.09
2022-10-19T16:33:30.997Z,25.11
2022-10-19T16:38:34.255Z,25.10
2022-10-19T16:43:36.182Z,25.07
2022-10-19T16:48:38.533Z,25.08
2022-10-19T16:53:40.730Z,25.11
2022-10-19T16:58:42.846Z,25.10
2022-10-19T17:03:46.133Z,25.10
2022-10-19T17:14:12.910Z,25.10
2022-10-19T17:19:15.057Z,25.10
2022-10-19T17:24:22.015Z,25.10
2022-10-19T17:29:24.450Z,25.08
2022-10-19T17:34:27.545Z,25.09
2022-10-19T17:39:30.241Z,25.10
2022-10-19T17:44:32.545Z,25.10
2022-10-19T17:49:34.666Z,25.11
2022-10-19T17:54:43.702Z,25.12
2022-10-19T17:59:56.618Z,25.12
2022-10-19T18:04:58.924Z,25.12
2022-10-19T18:10:00.960Z,25.12
2022-10-19T18:15:03.143Z,25.12
2022-10-19T18:20:05.662Z,25.11
2022-10-19T18:25:07.982Z,25.13
2022-10-19T18:30:10.456Z,25.11
2022-10-19T18:35:13.033Z,25.12
2022-10-19T18:40:15.078Z,25.12
2022-10-19T18:45:17.232Z,25.11
2022-10-19T18:50:19.553Z,25.13
2022-10-19T18:55:21.649Z,25.11
2022-10-19T19:00:23.675Z,25.12
2022-10-19T19:05:25.716Z,25.12
2022-10-19T19:10:27.765Z,25.11
2022-10-19T19:15:29.821Z,25.10
2022-10-19T19:20:31.870Z,25.12
2022-10-19T19:25:33.889Z,25.11
2022-10-19T19:30:41.927Z,25.11
2022-10-19T19:35:44.958Z,25.11
2022-10-19T19:40:47.670Z,25.11
2022-10-19T19:45:57.641Z,25.11
2022-10-19T19:50:59.660Z,25.11
2022-10-19T19:56:01.657Z,25.12
2022-10-19T20:01:31.318Z,25.10
2022-10-19T20:06:34.731Z,25.10
2022-10-19T20:11:41.894Z,25.11
2022-10-19T20:16:44.586Z,25.11
2022-10-19T20:21:46.564Z,25.10
2022-10-19T20:26:48.717Z,25.11
2022-10-19T20:31:50.895Z,25.11
2022-10-19T20:36:52.887Z,25.11
2022-10-19T20:41:55.126Z,25.10
2022-10-19T20:46:57.194Z,25.10
2022-10-19T20:51:59.268Z,25.12
2022-10-19T20:57:01.356Z,25.11
2022-10-19T21:02:03.397Z,25.08
2022-10-19T21:07:05.610Z,25.10
2022-10-19T21:12:07.602Z,25.13
2022-10-19T21:17:09.711Z,25.09
2022-10-19T21:22:12.861Z,25.10
2022-10-19T21:27:15.141Z,25.09
2022-10-19T21:32:18.524Z,25.09
2022-10-19T21:37:20.443Z,25.07
2022-10-19T21:42:22.520Z,25.09
2022-10-19T21:47:24.716Z,25.09
2022-10-19T21:52:26.742Z,25.09
2022-10-19T21:57:28.831Z,25.10
2022-10-19T22:02:30.892Z,25.08
2022-10-19T22:07:33.358Z,25.08
2022-10-19T22:12:35.906Z,25.08
2022-10-19T22:17:38.151Z,25.08
2022-10-19T22:22:40.313Z,25.08
2022-10-19T22:27:42.484Z,25.08
2022-10-19T22:32:44.626Z,25.09
2022-10-19T22:37:46.684Z,25.08
2022-10-19T22:43:44.980Z,25.08
2022-10-19T22:50:01.968Z,25.06
2022-10-19T22:55:22.667Z,25.05
2022-10-19T23:00:25.007Z,25.07
2022-10-19T23:05:27.140Z,25.07
2022-10-19T23:10:29.371Z,25.09
2022-10-19T23:15:31.532Z,25.08
2022-10-19T23:20:33.665Z,25.07
2022-10-19T23:25:35.834Z,25.08
2022-10-19T23:30:38.421Z,25.09
2022-10-19T23:35:40.551Z,25.08
2022-10-19T23:40:45.742Z,25.07
2022-10-19T23:45:47.961Z,25.07
2022-10-19T23:51:04.575Z,25.07
2022-10-19T23:56:15.427Z,25.06
